Time;durP1;ratioP1;P1;durP2;ratioP2;P2;SDS_P1;SDS_P2;PMS_P1;PMS_P2;Temp;Humidity;BMP_temperature;BMP_pressure;BME280_temperature;BME280_humidity;BME280_pressure;Samples;Min_cycle;Max_cycle;Signal;HPM_P1;HPM_P2
2023/03/10 00:00:46;;;;;;;12.75;7.95;;;;;;;;;;5035490;28;20025;-80
2023/03/10 00:03:12;;;;;;;11.70;7.72;;;;;;;;;;5034467;28;20033;-80
2023/03/10 00:05:38;;;;;;;11.85;7.28;;;;;;;;;;5029148;28;20022;-80
2023/03/10 00:08:05;;;;;;;11.23;7.57;;;;;;;;;;5023584;28;20056;-80
2023/03/10 00:10:31;;;;;;;10.77;7.95;;;;;;;;;;5013153;28;20054;-81
2023/03/10 00:12:57;;;;;;;13.23;8.10;;;;;;;;;;5013174;28;20023;-81
2023/03/10 00:15:23;;;;;;;13.80;7.75;;;;;;;;;;5013453;28;20041;-79
2023/03/10 00:17:51;;;;;;;10.70;7.10;;;;;;;;;;5025784;28;20034;-80
2023/03/10 00:20:17;;;;;;;11.90;7.22;;;;;;;;;;5032790;28;20061;-80
2023/03/10 00:22:43;;;;;;;10.85;7.07;;;;;;;;;;5032194;28;20022;-80
2023/03/10 00:25:10;;;;;;;15.55;7.15;;;;;;;;;;5019267;28;20027;-79
2023/03/10 00:27:36;;;;;;;10.55;7.45;;;;;;;;;;5012456;28;20015;-80
2023/03/10 00:30:02;;;;;;;11.35;7.07;;;;;;;;;;5016416;28;20027;-80
2023/03/10 00:32:28;;;;;;;10.55;6.70;;;;;;;;;;5031729;28;20033;-80
2023/03/10 00:34:54;;;;;;;11.25;7.07;;;;;;;;;;5032532;28;20026;-80
2023/03/10 00:37:21;;;;;;;11.27;6.72;;;;;;;;;;5034411;28;20029;-80
2023/03/10 00:39:50;;;;;;;10.82;7.47;;;;;;;;;;5019064;28;20032;-80
2023/03/10 00:42:16;;;;;;;10.10;6.93;;;;;;;;;;5025513;28;20065;-80
2023/03/10 00:44:42;;;;;;;11.13;8.10;;;;;;;;;;5032185;28;20022;-80
2023/03/10 00:47:08;;;;;;;10.32;6.28;;;;;;;;;;5015885;28;20038;-80
2023/03/10 00:49:34;;;;;;;9.57;7.10;;;;;;;;;;5026623;28;20033;-80
2023/03/10 00:52:00;;;;;;;12.02;6.82;;;;;;;;;;5032828;28;20041;-79
2023/03/10 00:54:26;;;;;;;11.73;7.45;;;;;;;;;;5032369;28;20030;-80
2023/03/10 00:56:52;;;;;;;11.43;7.25;;;;;;;;;;5010583;28;20086;-79
2023/03/10 00:59:18;;;;;;;11.77;6.80;;;;;;;;;;4998928;28;20536;-79
2023/03/10 01:01:44;;;;;;;11.45;7.10;;;;;;;;;;5013679;28;20440;-80
2023/03/10 01:04:14;;;;;;;14.90;9.18;;;;;;;;;;5010238;28;20022;-79
2023/03/10 01:06:41;;;;;;;11.43;7.25;;;;;;;;;;4998272;28;20022;-80
2023/03/10 01:09:07;;;;;;;10.82;8.02;;;;;;;;;;5005289;28;20033;-79
2023/03/10 01:11:33;;;;;;;12.43;7.07;;;;;;;;;;4997457;28;20025;-80
2023/03/10 01:14:00;;;;;;;13.88;7.18;;;;;;;;;;4995834;28;20181;-80
2023/03/10 01:16:27;;;;;;;11.07;7.10;;;;;;;;;;4997389;28;20402;-79
2023/03/10 01:18:53;;;;;;;10.48;6.95;;;;;;;;;;5003654;28;20120;-80
2023/03/10 01:21:20;;;;;;;10.13;6.60;;;;;;;;;;5004234;28;20053;-80
2023/03/10 01:23:46;;;;;;;9.30;6.50;;;;;;;;;;5011712;28;20030;-79
2023/03/10 01:26:12;;;;;;;8.88;6.60;;;;;;;;;;4999263;28;20018;-79
2023/03/10 01:28:50;;;;;;;9.68;6.70;;;;;;;;;;4998558;28;20026;-80
2023/03/10 01:34:20;;;;;;;;;;;;;;;;;;5005741;28;20036;-80
2023/03/10 01:36:46;;;;;;;11.63;6.28;;;;;;;;;;5011196;28;19965;-79
2023/03/10 01:39:12;;;;;;;10.95;6.00;;;;;;;;;;5002653;28;20125;-79
2023/03/10 01:41:39;;;;;;;10.15;6.90;;;;;;;;;;5014848;28;20054;-79
2023/03/10 01:44:05;;;;;;;11.10;7.43;;;;;;;;;;5014822;28;20034;-79
2023/03/10 01:46:31;;;;;;;10.02;6.07;;;;;;;;;;5006180;28;20045;-78
2023/03/10 01:49:00;;;;;;;10.82;6.32;;;;;;;;;;5019621;28;20034;-78
2023/03/10 01:51:26;;;;;;;9.40;6.15;;;;;;;;;;5006291;28;20049;-79
2023/03/10 01:53:53;;;;;;;8.27;5.72;;;;;;;;;;5001687;28;20097;-79
2023/03/10 01:56:19;;;;;;;10.43;6.43;;;;;;;;;;4997386;28;20026;-80
2023/03/10 01:58:46;;;;;;;11.27;6.50;;;;;;;;;;5000117;28;20046;-79
2023/03/10 02:01:13;;;;;;;9.80;6.45;;;;;;;;;;5005033;28;20033;-80
2023/03/10 02:03:45;;;;;;;10.45;6.55;;;;;;;;;;5001360;28;20045;-79
2023/03/10 02:06:13;;;;;;;8.38;5.35;;;;;;;;;;4998796;28;20026;-79
2023/03/10 02:08:48;;;;;;;9.55;5.55;;;;;;;;;;4998316;28;20571;-79
2023/03/10 02:11:22;;;;;;;9.95;6.05;;;;;;;;;;5001130;28;20033;-79
2023/03/10 02:13:48;;;;;;;10.93;5.82;;;;;;;;;;5010060;28;20069;-79
2023/03/10 02:22:08;;;;;;;10.50;6.00;;;;;;;;;;4998721;28;20050;-80
2023/03/10 02:28:14;;;;;;;10.93;6.15;;;;;;;;;;4998936;28;20072;-80
2023/03/10 02:30:45;;;;;;;10.18;6.20;;;;;;;;;;4997194;28;20057;-80
2023/03/10 02:33:19;;;;;;;9.95;6.05;;;;;;;;;;4998234;28;20056;-80
2023/03/10 02:35:45;;;;;;;11.15;6.38;;;;;;;;;;5005545;28;20113;-80
2023/03/10 02:38:12;;;;;;;10.63;5.97;;;;;;;;;;5014485;28;20025;-79
2023/03/10 02:40:48;;;;;;;9.27;6.13;;;;;;;;;;5006827;28;20022;-79
2023/03/10 02:43:33;;;;;;;10.40;6.07;;;;;;;;;;4997770;28;20022;-79
2023/03/10 02:46:00;;;;;;;9.38;6.10;;;;;;;;;;5013188;28;20022;-80
2023/03/10 02:48:29;;;;;;;9.88;5.90;;;;;;;;;;4997190;28;20088;-80
2023/03/10 02:50:56;;;;;;;9.65;6.75;;;;;;;;;;4998225;28;20445;-79
2023/03/10 02:53:26;;;;;;;10.32;6.10;;;;;;;;;;4996560;28;20023;-80
2023/03/10 02:55:52;;;;;;;11.77;6.63;;;;;;;;;;5016869;28;20030;-80
2023/03/10 02:58:18;;;;;;;9.05;5.82;;;;;;;;;;5013266;28;20042;-80
2023/03/10 03:00:45;;;;;;;9.38;5.60;;;;;;;;;;5009678;28;20104;-80
2023/03/10 03:03:11;;;;;;;10.10;5.88;;;;;;;;;;5011150;28;20022;-80
2023/03/10 03:05:38;;;;;;;9.20;5.75;;;;;;;;;;4998332;28;20486;-79
2023/03/10 03:08:05;;;;;;;9.93;6.15;;;;;;;;;;4997034;28;20058;-79
2023/03/10 03:10:31;;;;;;;12.38;6.32;;;;;;;;;;4997382;28;20073;-80
2023/03/10 03:12:57;;;;;;;8.65;5.75;;;;;;;;;;4995867;28;20022;-80
2023/03/10 03:15:23;;;;;;;9.20;5.90;;;;;;;;;;5006360;28;20041;-80
2023/03/10 03:17:50;;;;;;;10.43;6.13;;;;;;;;;;5016687;28;20401;-80
2023/03/10 03:20:16;;;;;;;12.48;6.05;;;;;;;;;;4998858;28;20030;-80
2023/03/10 03:22:43;;;;;;;10.10;5.93;;;;;;;;;;5011813;28;20030;-80
2023/03/10 03:25:10;;;;;;;9.80;5.78;;;;;;;;;;5013740;28;20490;-80
2023/03/10 03:27:36;;;;;;;8.40;5.75;;;;;;;;;;5014376;28;20714;-80
2023/03/10 03:30:03;;;;;;;11.98;6.22;;;;;;;;;;5012270;28;20029;-80
2023/03/10 03:32:29;;;;;;;8.38;5.63;;;;;;;;;;4995480;28;20050;-80
2023/03/10 03:34:55;;;;;;;9.18;6.13;;;;;;;;;;5012057;28;20034;-80
2023/03/10 03:37:21;;;;;;;8.90;5.90;;;;;;;;;;5007998;28;20037;-79
2023/03/10 03:39:47;;;;;;;11.02;6.40;;;;;;;;;;5021805;28;20034;-79
2023/03/10 03:42:13;;;;;;;9.15;6.25;;;;;;;;;;5016242;28;20030;-80
2023/03/10 03:44:39;;;;;;;9.55;6.03;;;;;;;;;;5001439;28;20023;-80
2023/03/10 03:47:07;;;;;;;12.18;6.28;;;;;;;;;;4996121;28;20022;-80
2023/03/10 03:49:34;;;;;;;11.02;7.43;;;;;;;;;;4997906;28;20026;-79
2023/03/10 03:52:00;;;;;;;9.18;6.35;;;;;;;;;;5000943;28;20033;-80
2023/03/10 03:54:26;;;;;;;11.02;6.07;;;;;;;;;;5007345;28;20431;-79
2023/03/10 03:56:52;;;;;;;9.98;5.88;;;;;;;;;;5014248;28;20030;-79
2023/03/10 03:59:18;;;;;;;9.63;6.03;;;;;;;;;;5001785;28;20434;-79
2023/03/10 04:01:44;;;;;;;8.73;5.88;;;;;;;;;;5007810;28;20030;-79
2023/03/10 04:04:10;;;;;;;11.25;6.65;;;;;;;;;;5005913;28;20034;-79
2023/03/10 04:06:36;;;;;;;8.93;6.05;;;;;;;;;;4996743;28;20418;-79
2023/03/10 04:09:03;;;;;;;11.10;6.18;;;;;;;;;;5005463;28;20041;-79
2023/03/10 04:11:29;;;;;;;10.05;6.20;;;;;;;;;;5017837;28;20018;-79
2023/03/10 04:13:55;;;;;;;10.93;5.40;;;;;;;;;;5015206;28;20112;-79
2023/03/10 04:16:21;;;;;;;9.30;5.63;;;;;;;;;;5005424;28;20033;-79
2023/03/10 04:18:47;;;;;;;10.27;5.82;;;;;;;;;;4996157;28;20401;-79
2023/03/10 04:21:13;;;;;;;10.13;6.40;;;;;;;;;;5010268;28;20026;-79
2023/03/10 04:23:41;;;;;;;10.93;7.18;;;;;;;;;;5011269;28;20036;-78
2023/03/10 04:26:08;;;;;;;9.18;6.03;;;;;;;;;;5011114;28;20014;-79
2023/03/10 04:28:34;;;;;;;9.18;6.28;;;;;;;;;;4999005;28;20022;-78
2023/03/10 04:31:00;;;;;;;11.00;6.30;;;;;;;;;;5007375;28;20022;-79
2023/03/10 04:33:26;;;;;;;11.30;6.05;;;;;;;;;;5016295;28;20064;-79
2023/03/10 04:35:52;;;;;;;10.43;6.28;;;;;;;;;;5016238;28;20021;-79
2023/03/10 04:38:18;;;;;;;8.80;5.95;;;;;;;;;;5016122;28;20018;-79
2023/03/10 04:40:44;;;;;;;10.32;5.72;;;;;;;;;;5012446;28;20482;-79
2023/03/10 04:43:10;;;;;;;9.70;5.95;;;;;;;;;;5009620;28;20026;-79
2023/03/10 04:45:37;;;;;;;11.98;6.80;;;;;;;;;;5001413;28;20080;-78
2023/03/10 04:48:03;;;;;;;11.43;6.90;;;;;;;;;;5000106;28;20093;-78
2023/03/10 04:50:29;;;;;;;10.48;7.05;;;;;;;;;;4998248;28;20382;-79
2023/03/10 04:52:55;;;;;;;10.02;6.32;;;;;;;;;;5002822;28;20068;-79
2023/03/10 04:55:21;;;;;;;11.85;7.35;;;;;;;;;;5016678;28;20029;-79
2023/03/10 04:57:47;;;;;;;9.45;6.53;;;;;;;;;;5017115;28;20120;-79
2023/03/10 05:00:13;;;;;;;11.40;7.00;;;;;;;;;;4997585;28;20474;-78
2023/03/10 05:02:39;;;;;;;10.48;5.72;;;;;;;;;;4997599;28;20112;-78
2023/03/10 05:05:05;;;;;;;10.40;5.82;;;;;;;;;;5006469;28;20034;-79
2023/03/10 05:07:31;;;;;;;10.55;7.43;;;;;;;;;;5016684;28;20033;-78
2023/03/10 05:09:58;;;;;;;10.68;7.15;;;;;;;;;;5018588;28;20047;-78
2023/03/10 05:12:24;;;;;;;10.60;6.93;;;;;;;;;;5002104;28;20037;-78
2023/03/10 05:14:50;;;;;;;11.07;6.55;;;;;;;;;;4996557;28;20458;-78
2023/03/10 05:17:16;;;;;;;9.65;5.80;;;;;;;;;;5011294;28;20026;-78
2023/03/10 05:19:42;;;;;;;11.85;5.90;;;;;;;;;;5021041;28;20124;-77
2023/03/10 05:22:10;;;;;;;8.85;5.50;;;;;;;;;;5010396;28;20057;-78
2023/03/10 05:24:36;;;;;;;9.63;6.05;;;;;;;;;;5001888;28;20088;-79
2023/03/10 05:27:02;;;;;;;11.02;5.93;;;;;;;;;;5010726;28;20053;-79
2023/03/10 05:29:28;;;;;;;10.73;6.10;;;;;;;;;;5002512;28;20030;-79
2023/03/10 05:31:54;;;;;;;10.20;5.30;;;;;;;;;;4999616;28;20026;-78
2023/03/10 05:40:27;;;;;;;10.07;5.95;;;;;;;;;;4999337;28;20065;-79
2023/03/10 05:42:54;;;;;;;11.52;6.57;;;;;;;;;;5005043;28;20022;-78
2023/03/10 05:45:20;;;;;;;8.02;5.68;;;;;;;;;;5015489;28;20033;-80
2023/03/10 05:47:46;;;;;;;12.15;6.20;;;;;;;;;;5005405;28;20053;-80
2023/03/10 05:50:15;;;;;;;9.23;5.57;;;;;;;;;;5005360;28;20034;-80
2023/03/10 05:52:42;;;;;;;9.70;6.35;;;;;;;;;;5014111;28;20430;-80
2023/03/10 05:55:11;;;;;;;10.27;5.85;;;;;;;;;;5012249;28;20030;-81
2023/03/10 05:57:37;;;;;;;11.40;6.57;;;;;;;;;;5021742;28;20041;-80
2023/03/10 06:00:04;;;;;;;14.77;7.90;;;;;;;;;;5017558;28;20064;-80
2023/03/10 06:02:30;;;;;;;10.93;7.18;;;;;;;;;;5001361;28;20030;-80
2023/03/10 06:04:56;;;;;;;10.63;6.45;;;;;;;;;;5001148;28;20118;-81
2023/03/10 06:07:22;;;;;;;13.85;7.03;;;;;;;;;;5002375;28;20045;-80
2023/03/10 06:09:48;;;;;;;13.35;6.90;;;;;;;;;;4999778;28;20070;-80
2023/03/10 06:12:14;;;;;;;10.40;6.90;;;;;;;;;;4999849;28;20070;-80
2023/03/10 06:14:40;;;;;;;17.67;9.35;;;;;;;;;;5014227;28;20452;-79
2023/03/10 06:17:06;;;;;;;16.60;9.15;;;;;;;;;;5010519;28;20042;-79
2023/03/10 06:19:32;;;;;;;16.05;9.35;;;;;;;;;;5010593;28;20040;-80
2023/03/10 06:21:58;;;;;;;19.38;8.80;;;;;;;;;;5012256;28;20091;-80
2023/03/10 06:24:24;;;;;;;14.18;8.45;;;;;;;;;;5026936;28;20022;-80
2023/03/10 06:26:50;;;;;;;16.38;8.10;;;;;;;;;;5019841;28;20029;-80
2023/03/10 06:29:16;;;;;;;16.58;8.80;;;;;;;;;;5024014;28;20022;-80
2023/03/10 06:31:42;;;;;;;16.58;10.18;;;;;;;;;;5008390;28;20026;-79
2023/03/10 06:34:09;;;;;;;17.15;11.13;;;;;;;;;;5006293;28;20117;-79
2023/03/10 06:36:36;;;;;;;24.35;15.40;;;;;;;;;;5011003;28;20020;-80
2023/03/10 06:39:02;;;;;;;34.58;18.17;;;;;;;;;;5005447;28;20125;-80
2023/03/10 06:41:28;;;;;;;29.85;14.73;;;;;;;;;;5009698;28;20470;-80
2023/03/10 06:43:54;;;;;;;24.05;14.55;;;;;;;;;;5002905;28;20036;-80
2023/03/10 06:46:20;;;;;;;24.55;12.90;;;;;;;;;;5001892;28;20028;-79
2023/03/10 06:48:46;;;;;;;19.42;11.60;;;;;;;;;;5006842;28;20025;-79
2023/03/10 06:51:14;;;;;;;21.10;11.98;;;;;;;;;;5003754;28;20026;-79
2023/03/10 06:53:40;;;;;;;14.57;9.75;;;;;;;;;;5006184;28;20021;-80
2023/03/10 06:56:14;;;;;;;17.88;7.95;;;;;;;;;;5005920;28;20058;-80
2023/03/10 06:58:40;;;;;;;14.35;7.28;;;;;;;;;;5012985;28;20065;-80
2023/03/10 07:01:07;;;;;;;13.18;7.00;;;;;;;;;;5018712;28;20022;-79
2023/03/10 07:03:34;;;;;;;16.85;9.60;;;;;;;;;;5013156;28;20038;-80
2023/03/10 07:06:00;;;;;;;19.00;11.93;;;;;;;;;;5000084;28;20029;-80
2023/03/10 07:08:26;;;;;;;24.10;14.32;;;;;;;;;;5006973;28;20018;-81
2023/03/10 07:10:52;;;;;;;19.30;10.48;;;;;;;;;;5004915;28;20026;-80
2023/03/10 07:13:18;;;;;;;12.25;7.70;;;;;;;;;;5001257;28;20028;-81
2023/03/10 07:15:45;;;;;;;15.07;8.52;;;;;;;;;;5029548;28;20060;-80
2023/03/10 07:18:12;;;;;;;12.57;7.05;;;;;;;;;;5042024;28;20085;-81
2023/03/10 07:20:44;;;;;;;13.50;9.25;;;;;;;;;;5021611;28;20030;-80
2023/03/10 07:23:10;;;;;;;;;;;;;;;;;;5016752;28;20061;-83
2023/03/10 07:25:38;;;;;;;11.50;5.82;;;;;;;;;;5019343;28;19967;-81
2023/03/10 07:28:04;;;;;;;14.40;6.55;;;;;;;;;;5017896;28;20026;-81
2023/03/10 07:30:31;;;;;;;11.40;7.07;;;;;;;;;;5019919;28;20026;-80
2023/03/10 07:32:57;;;;;;;12.13;7.30;;;;;;;;;;5010746;28;20097;-80
2023/03/10 07:35:23;;;;;;;11.45;7.18;;;;;;;;;;5008106;28;20064;-81
2023/03/10 07:37:49;;;;;;;13.65;7.80;;;;;;;;;;5024173;28;20026;-81
2023/03/10 07:40:15;;;;;;;16.02;8.30;;;;;;;;;;5023630;28;20022;-85
2023/03/10 07:42:44;;;;;;;17.25;7.90;;;;;;;;;;5023119;28;20036;-81
2023/03/10 07:45:11;;;;;;;13.30;7.93;;;;;;;;;;5025402;28;20033;-81
2023/03/10 07:47:37;;;;;;;11.30;7.95;;;;;;;;;;5024714;28;20045;-81
2023/03/10 07:50:03;;;;;;;14.07;8.35;;;;;;;;;;5023057;28;20033;-82
2023/03/10 07:52:29;;;;;;;12.38;7.55;;;;;;;;;;5012799;28;20018;-82
2023/03/10 07:54:55;;;;;;;13.52;8.32;;;;;;;;;;5015736;28;20038;-80
2023/03/10 07:57:21;;;;;;;12.55;7.95;;;;;;;;;;5008971;28;20026;-82
2023/03/10 07:59:47;;;;;;;14.15;7.85;;;;;;;;;;5005494;28;20045;-81
2023/03/10 08:02:14;;;;;;;11.80;7.50;;;;;;;;;;5009657;28;20026;-79
2023/03/10 08:04:40;;;;;;;11.63;7.18;;;;;;;;;;5012380;28;20133;-83
2023/03/10 08:07:07;;;;;;;13.10;8.18;;;;;;;;;;5008275;28;20090;-80
2023/03/10 08:09:33;;;;;;;16.38;9.13;;;;;;;;;;5006176;28;20064;-80
2023/03/10 08:11:59;;;;;;;11.75;7.13;;;;;;;;;;5020442;28;20029;-81
2023/03/10 08:14:27;;;;;;;11.25;6.85;;;;;;;;;;5038080;28;20021;-81
2023/03/10 08:16:55;;;;;;;12.13;7.88;;;;;;;;;;5013629;28;20385;-79
2023/03/10 08:19:21;;;;;;;14.18;7.53;;;;;;;;;;5006134;28;20018;-81
2023/03/10 08:21:47;;;;;;;12.85;7.82;;;;;;;;;;5009319;28;20053;-83
2023/03/10 08:24:13;;;;;;;12.13;7.38;;;;;;;;;;5010466;28;20037;-81
2023/03/10 08:26:39;;;;;;;13.77;8.00;;;;;;;;;;5025899;28;20038;-82
2023/03/10 08:29:05;;;;;;;13.85;7.38;;;;;;;;;;5023740;28;20037;-81
2023/03/10 08:31:31;;;;;;;13.23;7.90;;;;;;;;;;5017863;28;20069;-79
2023/03/10 08:33:57;;;;;;;10.32;7.10;;;;;;;;;;5027971;28;20022;-80
2023/03/10 08:36:25;;;;;;;12.27;6.78;;;;;;;;;;5018937;28;20089;-81
2023/03/10 08:38:52;;;;;;;12.30;7.20;;;;;;;;;;5024822;28;20029;-82
2023/03/10 08:41:20;;;;;;;13.85;7.72;;;;;;;;;;5019779;28;20054;-83
2023/03/10 08:43:46;;;;;;;10.52;8.00;;;;;;;;;;5020491;28;20033;-83
2023/03/10 08:46:12;;;;;;;11.35;7.45;;;;;;;;;;5025477;28;20030;-82
2023/03/10 08:48:38;;;;;;;13.02;7.70;;;;;;;;;;5026376;28;20485;-83
2023/03/10 08:51:05;;;;;;;11.73;7.60;;;;;;;;;;5008075;28;20037;-82
2023/03/10 08:53:35;;;;;;;11.00;7.60;;;;;;;;;;5019081;28;20104;-81
2023/03/10 08:56:01;;;;;;;12.98;7.47;;;;;;;;;;5026375;28;20041;-81
2023/03/10 08:58:27;;;;;;;10.48;7.47;;;;;;;;;;5014812;28;20046;-82
2023/03/10 09:00:53;;;;;;;12.85;7.63;;;;;;;;;;5022394;28;20073;-81
2023/03/10 09:03:19;;;;;;;10.68;6.90;;;;;;;;;;5024095;28;20041;-80
2023/03/10 09:05:46;;;;;;;11.85;8.20;;;;;;;;;;5025435;28;20022;-82
2023/03/10 09:08:12;;;;;;;11.38;7.05;;;;;;;;;;5013667;28;20399;-81
2023/03/10 09:10:40;;;;;;;12.60;8.02;;;;;;;;;;5017814;28;20026;-83
2023/03/10 09:13:06;;;;;;;10.63;7.65;;;;;;;;;;5025739;28;20026;-82
2023/03/10 09:15:33;;;;;;;10.50;6.90;;;;;;;;;;5026725;28;20029;-83
2023/03/10 09:18:00;;;;;;;10.82;6.80;;;;;;;;;;5028438;28;20072;-82
2023/03/10 09:20:26;;;;;;;11.18;7.07;;;;;;;;;;5025476;28;20026;-82
2023/03/10 09:22:52;;;;;;;10.52;6.78;;;;;;;;;;5009763;28;20034;-83
2023/03/10 09:25:19;;;;;;;11.55;7.22;;;;;;;;;;5009417;28;20092;-81
2023/03/10 09:27:45;;;;;;;12.13;7.25;;;;;;;;;;5008341;28;20023;-81
2023/03/10 09:30:11;;;;;;;10.52;6.78;;;;;;;;;;5007546;28;20601;-79
2023/03/10 09:32:37;;;;;;;12.02;7.13;;;;;;;;;;5010722;28;20015;-81
2023/03/10 09:35:04;;;;;;;12.52;6.75;;;;;;;;;;5007957;28;20041;-81
2023/03/10 09:37:31;;;;;;;10.27;6.88;;;;;;;;;;5007712;28;20022;-82
2023/03/10 09:39:57;;;;;;;10.18;6.68;;;;;;;;;;5011454;28;20429;-81
2023/03/10 09:42:30;;;;;;;11.52;6.80;;;;;;;;;;5009639;28;20022;-82
2023/03/10 09:44:56;;;;;;;10.23;6.47;;;;;;;;;;5018633;28;20502;-82
2023/03/10 09:47:26;;;;;;;10.32;6.57;;;;;;;;;;5019306;28;20482;-82
2023/03/10 09:49:59;;;;;;;11.02;7.57;;;;;;;;;;5022602;28;20018;-82
2023/03/10 09:52:34;;;;;;;9.65;6.70;;;;;;;;;;5019033;28;20042;-82
2023/03/10 09:55:05;;;;;;;11.48;6.47;;;;;;;;;;5016740;28;20490;-82
2023/03/10 09:57:32;;;;;;;11.57;6.63;;;;;;;;;;5009986;28;21109;-82
2023/03/10 10:00:00;;;;;;;9.68;6.57;;;;;;;;;;5014863;28;20030;-81
2023/03/10 10:02:32;;;;;;;11.60;7.80;;;;;;;;;;5008564;28;20018;-82
2023/03/10 10:05:00;;;;;;;12.17;7.30;;;;;;;;;;5010333;28;20030;-80
2023/03/10 10:07:28;;;;;;;10.93;6.68;;;;;;;;;;5024876;28;20285;-82
2023/03/10 10:10:03;;;;;;;10.05;6.93;;;;;;;;;;5025320;28;20026;-82
2023/03/10 10:12:29;;;;;;;11.50;7.05;;;;;;;;;;5025318;28;20045;-82
2023/03/10 10:14:57;;;;;;;9.57;6.07;;;;;;;;;;5025631;28;20163;-81
2023/03/10 10:17:52;;;;;;;11.00;7.10;;;;;;;;;;5026614;28;20033;-82
2023/03/10 10:20:33;;;;;;;10.80;6.55;;;;;;;;;;5021905;28;20049;-81
2023/03/10 10:22:59;;;;;;;11.80;7.22;;;;;;;;;;5022297;28;20026;-80
2023/03/10 10:25:30;;;;;;;10.73;6.57;;;;;;;;;;5013236;28;20054;-82
2023/03/10 10:27:56;;;;;;;8.88;6.55;;;;;;;;;;5004587;28;20019;-81
2023/03/10 10:30:27;;;;;;;11.68;7.00;;;;;;;;;;5018653;28;20022;-83
2023/03/10 10:32:58;;;;;;;11.35;6.63;;;;;;;;;;5018299;28;20033;-82
2023/03/10 10:35:25;;;;;;;9.75;6.25;;;;;;;;;;5006278;28;20034;-82
2023/03/10 10:38:17;;;;;;;12.18;7.30;;;;;;;;;;5026358;28;20077;-82
2023/03/10 10:40:47;;;;;;;10.52;6.68;;;;;;;;;;5012259;28;20146;-83
2023/03/10 10:43:17;;;;;;;10.15;6.75;;;;;;;;;;5021523;28;20030;-82
2023/03/10 10:45:44;;;;;;;11.95;6.78;;;;;;;;;;5017261;28;20028;-83
2023/03/10 10:48:29;;;;;;;11.77;7.43;;;;;;;;;;5017711;28;20030;-82
2023/03/10 10:50:55;;;;;;;8.68;6.03;;;;;;;;;;5024669;28;20037;-82
2023/03/10 10:53:23;;;;;;;13.68;8.23;;;;;;;;;;5021894;28;20025;-82
2023/03/10 10:56:00;;;;;;;10.45;6.82;;;;;;;;;;5024978;28;20041;-82
2023/03/10 10:58:31;;;;;;;9.68;6.10;;;;;;;;;;5025270;28;20042;-82
2023/03/10 11:00:59;;;;;;;9.23;5.63;;;;;;;;;;5024768;28;20095;-83
2023/03/10 11:03:27;;;;;;;8.75;5.68;;;;;;;;;;5024887;28;20030;-82
2023/03/10 11:05:53;;;;;;;7.85;5.00;;;;;;;;;;5024893;28;20084;-82
2023/03/10 11:08:27;;;;;;;6.90;3.78;;;;;;;;;;5015054;28;20023;-82
2023/03/10 11:10:59;;;;;;;6.97;3.33;;;;;;;;;;5006429;28;20042;-81
2023/03/10 11:13:31;;;;;;;4.88;2.88;;;;;;;;;;5006152;28;20022;-81
2023/03/10 11:15:57;;;;;;;4.57;2.60;;;;;;;;;;5027972;28;20090;-81
2023/03/10 11:18:30;;;;;;;6.13;3.17;;;;;;;;;;5015593;28;20026;-82
2023/03/10 11:21:13;;;;;;;6.38;3.47;;;;;;;;;;5014337;28;20049;-82
2023/03/10 11:23:58;;;;;;;7.82;3.80;;;;;;;;;;5034091;28;20049;-82
2023/03/10 11:26:43;;;;;;;7.70;3.83;;;;;;;;;;5004441;28;20499;-82
2023/03/10 11:29:27;;;;;;;7.13;4.35;;;;;;;;;;5018851;28;20108;-81
2023/03/10 11:31:53;;;;;;;6.80;4.57;;;;;;;;;;5004981;28;20018;-82
2023/03/10 11:34:24;;;;;;;6.53;4.38;;;;;;;;;;5012353;28;20049;-83
2023/03/10 11:37:04;;;;;;;7.20;4.63;;;;;;;;;;5020246;28;20042;-83
2023/03/10 11:39:35;;;;;;;6.93;4.55;;;;;;;;;;5009384;28;20030;-81
2023/03/10 11:42:12;;;;;;;10.63;5.00;;;;;;;;;;5021748;28;20037;-84
2023/03/10 11:44:41;;;;;;;7.80;4.72;;;;;;;;;;5017793;28;20026;-82
2023/03/10 11:47:26;;;;;;;7.95;4.75;;;;;;;;;;5007747;28;20143;-82
2023/03/10 11:49:58;;;;;;;7.47;5.32;;;;;;;;;;5016386;28;20037;-81
2023/03/10 11:52:26;;;;;;;7.23;4.63;;;;;;;;;;5016652;28;20026;-82
2023/03/10 11:55:04;;;;;;;9.15;5.45;;;;;;;;;;5019081;28;20089;-79
2023/03/10 11:57:33;;;;;;;7.57;5.15;;;;;;;;;;5011659;28;20030;-82
2023/03/10 12:00:03;;;;;;;7.78;4.82;;;;;;;;;;5008135;28;20026;-80
2023/03/10 12:02:47;;;;;;;7.63;4.80;;;;;;;;;;5021235;28;20056;-82
2023/03/10 12:05:19;;;;;;;8.02;5.38;;;;;;;;;;5025572;28;20106;-82
2023/03/10 12:07:46;;;;;;;8.63;5.57;;;;;;;;;;5024777;28;20020;-81
2023/03/10 12:10:12;;;;;;;10.93;4.68;;;;;;;;;;5022116;28;20027;-82
2023/03/10 12:12:40;;;;;;;6.90;4.45;;;;;;;;;;5022522;28;20060;-82
2023/03/10 12:15:24;;;;;;;7.85;5.00;;;;;;;;;;5024462;28;20060;-82
2023/03/10 12:17:52;;;;;;;6.85;4.35;;;;;;;;;;5012091;28;20605;-84
2023/03/10 12:20:18;;;;;;;9.15;4.85;;;;;;;;;;5012608;28;20397;-81
2023/03/10 12:22:52;;;;;;;10.25;5.30;;;;;;;;;;5018336;28;20074;-82
2023/03/10 12:25:27;;;;;;;7.25;4.70;;;;;;;;;;5013882;28;20094;-82
2023/03/10 12:30:57;;;;;;;;;;;;;;;;;;5013380;28;20034;-82
2023/03/10 12:36:11;;;;;;;7.45;4.18;;;;;;;;;;5029015;28;20033;-82
2023/03/10 12:38:37;;;;;;;6.10;4.05;;;;;;;;;;5027401;28;20025;-82
2023/03/10 12:41:03;;;;;;;6.90;4.07;;;;;;;;;;5017002;28;20069;-82
2023/03/10 12:43:48;;;;;;;5.85;3.70;;;;;;;;;;5009780;28;20033;-81
2023/03/10 12:46:18;;;;;;;6.95;3.72;;;;;;;;;;5020443;28;20032;-81
2023/03/10 12:48:47;;;;;;;7.25;4.20;;;;;;;;;;5029138;28;20074;-83
2023/03/10 12:51:18;;;;;;;7.90;4.10;;;;;;;;;;5017000;28;20030;-82
2023/03/10 12:53:51;;;;;;;7.03;4.20;;;;;;;;;;5008696;28;20035;-81
2023/03/10 12:56:21;;;;;;;7.07;4.53;;;;;;;;;;5007589;28;20158;-82
2023/03/10 12:58:47;;;;;;;6.53;3.30;;;;;;;;;;5008885;28;20589;-82
2023/03/10 13:01:16;;;;;;;7.35;3.45;;;;;;;;;;5007642;28;20057;-82
2023/03/10 13:03:48;;;;;;;6.22;3.88;;;;;;;;;;5008956;28;20039;-80
2023/03/10 13:06:17;;;;;;;7.38;3.33;;;;;;;;;;5008805;28;20022;-82
2023/03/10 13:08:47;;;;;;;5.53;2.95;;;;;;;;;;5006890;28;20033;-82
2023/03/10 13:11:24;;;;;;;7.03;3.03;;;;;;;;;;5017627;28;20164;-80
2023/03/10 13:13:51;;;;;;;6.82;3.63;;;;;;;;;;5029440;28;20053;-80
2023/03/10 13:16:18;;;;;;;6.32;3.42;;;;;;;;;;5030403;28;20026;-81
2023/03/10 13:18:47;;;;;;;6.45;3.15;;;;;;;;;;5029637;28;20030;-82
2023/03/10 13:21:29;;;;;;;7.05;3.08;;;;;;;;;;5015599;28;20041;-83
2023/03/10 13:23:55;;;;;;;5.40;2.42;;;;;;;;;;5008539;28;20049;-82
2023/03/10 13:26:23;;;;;;;5.32;2.90;;;;;;;;;;5022099;28;20022;-82
2023/03/10 13:28:55;;;;;;;7.43;2.47;;;;;;;;;;5027847;28;20014;-82
2023/03/10 13:31:23;;;;;;;4.90;2.20;;;;;;;;;;5027003;28;20037;-82
2023/03/10 13:33:50;;;;;;;4.28;1.73;;;;;;;;;;5028093;28;20041;-82
2023/03/10 13:36:21;;;;;;;6.10;2.08;;;;;;;;;;5027418;28;20433;-82
2023/03/10 13:38:48;;;;;;;5.05;1.85;;;;;;;;;;5027042;28;20037;-82
2023/03/10 13:41:14;;;;;;;4.05;1.60;;;;;;;;;;5027222;28;20068;-82
2023/03/10 13:43:45;;;;;;;4.10;1.85;;;;;;;;;;5028104;28;20056;-82
2023/03/10 13:46:15;;;;;;;3.88;1.55;;;;;;;;;;5011859;28;20058;-82
2023/03/10 13:48:42;;;;;;;3.50;1.60;;;;;;;;;;5010997;28;20022;-82
2023/03/10 13:51:14;;;;;;;3.55;1.00;;;;;;;;;;5007620;28;20022;-83
2023/03/10 13:53:40;;;;;;;5.78;1.30;;;;;;;;;;5007222;28;20022;-81
2023/03/10 13:56:23;;;;;;;3.08;1.20;;;;;;;;;;5006141;28;20026;-81
2023/03/10 13:58:52;;;;;;;3.47;1.15;;;;;;;;;;5014434;28;20042;-81
2023/03/10 14:01:21;;;;;;;3.58;1.15;;;;;;;;;;5013250;28;20026;-82
2023/03/10 14:03:53;;;;;;;3.10;0.98;;;;;;;;;;5010679;28;20030;-81
2023/03/10 14:06:19;;;;;;;3.58;1.20;;;;;;;;;;5015735;28;20375;-81
2023/03/10 14:08:45;;;;;;;3.17;1.02;;;;;;;;;;5007347;28;20074;-85
2023/03/10 14:11:31;;;;;;;2.83;1.02;;;;;;;;;;5018154;28;20714;-80
2023/03/10 14:13:57;;;;;;;4.97;1.35;;;;;;;;;;5027794;28;20057;-82
2023/03/10 14:16:42;;;;;;;4.22;1.30;;;;;;;;;;5005510;28;20040;-82
2023/03/10 14:19:09;;;;;;;5.20;1.83;;;;;;;;;;5005786;28;20042;-81
2023/03/10 14:21:35;;;;;;;5.30;2.00;;;;;;;;;;5012016;28;20042;-82
2023/03/10 14:24:02;;;;;;;4.32;1.33;;;;;;;;;;5004812;28;20030;-82
2023/03/10 14:26:28;;;;;;;4.43;1.52;;;;;;;;;;5004025;28;20034;-81
2023/03/10 14:28:54;;;;;;;3.42;1.40;;;;;;;;;;5015507;28;20454;-80
2023/03/10 14:31:22;;;;;;;4.47;1.48;;;;;;;;;;5017261;28;20049;-81
2023/03/10 14:33:48;;;;;;;5.13;1.65;;;;;;;;;;5019824;28;20050;-81
2023/03/10 14:36:14;;;;;;;5.10;2.20;;;;;;;;;;5003654;28;20022;-81
2023/03/10 14:38:40;;;;;;;5.72;1.90;;;;;;;;;;5004275;28;20029;-80
2023/03/10 14:41:06;;;;;;;3.75;1.58;;;;;;;;;;5020108;28;20421;-81
2023/03/10 14:43:34;;;;;;;5.15;1.83;;;;;;;;;;5011986;28;20020;-81
2023/03/10 14:46:01;;;;;;;4.82;1.60;;;;;;;;;;5004373;28;20259;-81
2023/03/10 14:48:28;;;;;;;3.63;1.30;;;;;;;;;;5004487;28;20121;-82
2023/03/10 14:50:55;;;;;;;4.90;1.70;;;;;;;;;;5004933;28;20026;-80
2023/03/10 14:53:25;;;;;;;3.58;1.75;;;;;;;;;;5008030;28;20030;-81
2023/03/10 14:55:52;;;;;;;4.05;1.33;;;;;;;;;;5002717;28;20041;-81
2023/03/10 14:58:23;;;;;;;4.18;1.55;;;;;;;;;;5007021;28;20069;-83
2023/03/10 15:00:49;;;;;;;4.53;1.45;;;;;;;;;;5013318;28;20034;-81
2023/03/10 15:03:16;;;;;;;4.63;1.45;;;;;;;;;;5023214;28;20049;-81
2023/03/10 15:05:42;;;;;;;3.88;1.33;;;;;;;;;;5016758;28;20026;-80